Barnes City, Iowa
Current Conditions -  °F | °C
As of 1:55 PM on Wednesday 28 Jan 2015 (Local Time) from KOOA Reporting Station
Clear Clear  
Wind Chill: 34°   Ceiling: Unl
Heat Index: 42°   Visibility: 10mi
Dew Point: 35°   Wind: 16mph
Humidity: 75%   Direction: 140°SE
Pressure: 29.83"   Gusts: 22mph
Location:  41.51°N, 92.47°W
Report Text: KOOA 281955Z AUTO 14014G19KT 10SM CLR 06/02 A2983 RMK AO2 T00570015
Loading
Personal Weather Stations






























Interactive Weather Map New forecast layout! Learn more

10-Day Weather Forecast

Advertisements
Track Severe Weather on mobile